Time;durP1;ratioP1;P1;durP2;ratioP2;P2;SDS_P1;SDS_P2;PMS_P1;PMS_P2;Temp;Humidity;BMP_temperature;BMP_pressure;BME280_temperature;BME280_humidity;BME280_pressure;Samples;Min_cycle;Max_cycle;Signal;HPM_P1;HPM_P2
2020/12/02 00:01:29;;;;;;;36.40;18.50;;;;;;;-5.03;79.41;97291.14;1729358;82;21240;-79
2020/12/02 00:04:10;;;;;;;35.00;17.35;;;;;;;-5.05;79.30;97283.55;1729505;83;21123;-79
2020/12/02 00:06:38;;;;;;;35.58;16.87;;;;;;;-5.01;79.28;97291.78;1729461;83;21139;-79
2020/12/02 00:09:16;;;;;;;38.60;18.37;;;;;;;-5.00;79.21;97278.69;1729354;83;21159;-79
2020/12/02 00:11:43;;;;;;;38.23;17.82;;;;;;;-4.97;79.13;97278.35;1728312;83;21108;-79
2020/12/02 00:14:16;;;;;;;32.83;16.67;;;;;;;-5.02;78.87;97279.34;1729588;83;21150;-79
2020/12/02 00:16:57;;;;;;;32.20;14.20;;;;;;;-4.96;78.87;97276.09;1785070;79;22916;-78
2020/12/02 00:19:25;;;;;;;27.05;14.20;;;;;;;-4.99;78.84;97276.42;1757930;81;21127;-78
2020/12/02 00:22:09;;;;;;;31.17;16.45;;;;;;;-5.02;78.80;97278.05;1729385;83;21582;-78
2020/12/02 00:24:38;;;;;;;34.48;18.67;;;;;;;-5.03;78.85;97285.48;1729692;83;21144;-79
2020/12/02 00:27:18;;;;;;;32.15;17.57;;;;;;;-5.03;78.86;97288.07;1729377;83;21139;-79
2020/12/02 00:29:48;;;;;;;36.17;17.82;;;;;;;-5.02;78.92;97285.80;1729387;82;21147;-78
2020/12/02 00:32:38;;;;;;;31.73;19.55;;;;;;;-5.00;78.96;97290.33;1729690;83;21119;-78
2020/12/02 00:35:09;;;;;;;26.17;13.75;;;;;;;-5.02;78.88;97298.73;1729544;83;21167;-79
2020/12/02 00:37:36;;;;;;;38.50;18.70;;;;;;;-5.02;78.82;97292.75;1729482;83;21159;-79
2020/12/02 00:40:06;;;;;;;33.63;17.67;;;;;;;-5.14;78.58;97291.78;1729350;82;21506;-79
2020/12/02 00:42:33;;;;;;;33.58;16.87;;;;;;;-5.14;78.65;97290.50;1729344;83;21147;-79
2020/12/02 00:45:00;;;;;;;35.05;17.60;;;;;;;-5.07;78.76;97295.80;1729431;83;21161;-79
2020/12/02 00:47:28;;;;;;;27.27;14.98;;;;;;;-5.11;78.63;97294.53;1729501;83;21143;-79
2020/12/02 00:49:56;;;;;;;28.05;14.87;;;;;;;-5.10;78.59;97288.38;1729342;82;21186;-79
2020/12/02 00:52:26;;;;;;;32.10;16.45;;;;;;;-5.10;78.56;97293.55;1729565;83;21135;-79
2020/12/02 00:54:54;;;;;;;34.88;18.12;;;;;;;-5.14;78.39;97292.27;1729663;83;21167;-79
2020/12/02 00:57:27;;;;;;;36.05;18.07;;;;;;;-5.17;78.45;97291.31;1729563;83;21150;-79
2020/12/02 00:59:58;;;;;;;29.70;15.10;;;;;;;-5.15;78.53;97290.66;1729211;82;21153;-79
2020/12/02 01:03:01;;;;;;;30.50;14.70;;;;;;;-5.09;78.66;97292.58;1729383;83;21127;-79
2020/12/02 01:05:30;;;;;;;39.48;18.07;;;;;;;-5.06;78.85;97292.77;1729705;83;21123;-78
2020/12/02 01:08:15;;;;;;;36.40;19.35;;;;;;;-5.09;78.67;97292.58;1729382;83;21539;-78
2020/12/02 01:11:22;;;;;;;30.85;16.40;;;;;;;-5.07;78.77;97288.05;1764487;79;23081;-77
2020/12/02 01:14:00;;;;;;;27.52;16.42;;;;;;;-5.16;78.75;97298.91;1700371;84;21096;-78
2020/12/02 01:19:18;;;;;;;27.17;13.25;;;;;;;-5.24;79.06;97282.58;1818318;79;22677;-77
2020/12/02 01:21:56;;;;;;;31.90;18.23;;;;;;;-5.32;79.30;97292.45;1760517;81;21270;-77
2020/12/02 01:24:29;;;;;;;32.15;17.40;;;;;;;-5.33;79.20;97287.45;1731368;81;21138;-78
2020/12/02 01:27:07;;;;;;;34.70;17.15;;;;;;;-5.37;79.23;97281.28;1760738;81;21132;-78
2020/12/02 01:29:35;;;;;;;34.73;18.10;;;;;;;-5.39;79.37;97287.10;1760245;81;21130;-78
2020/12/02 01:32:02;;;;;;;34.90;19.32;;;;;;;-5.42;79.58;97290.50;1760593;81;21507;-78
2020/12/02 01:34:29;;;;;;;29.57;15.45;;;;;;;-5.46;79.58;97280.98;1760550;81;21116;-78
2020/12/02 01:37:01;;;;;;;26.77;14.33;;;;;;;-5.45;79.70;97283.08;1760504;81;21506;-78
2020/12/02 01:39:33;;;;;;;35.00;19.20;;;;;;;-5.47;79.76;97285.02;1760596;81;21143;-79
2020/12/02 01:42:01;;;;;;;31.25;16.40;;;;;;;-5.49;79.56;97292.93;1750888;81;21518;-78
2020/12/02 01:44:29;;;;;;;31.80;16.02;;;;;;;-5.47;79.56;97292.77;1722436;82;21504;-78
2020/12/02 01:47:10;;;;;;;19.87;9.70;;;;;;;-5.48;79.60;97300.20;1722490;83;21529;-78
2020/12/02 01:50:21;;;;;;;31.42;16.42;;;;;;;-5.48;79.71;97291.96;1778790;79;22718;-77
2020/12/02 01:53:14;;;;;;;24.20;14.03;;;;;;;-5.51;79.66;97295.33;1729424;83;21143;-78
2020/12/02 01:55:53;;;;;;;31.62;17.75;;;;;;;-5.50;79.80;97295.16;1729539;83;21132;-78
2020/12/02 01:58:49;;;;;;;38.08;19.12;;;;;;;-5.49;79.68;97293.39;1728971;83;21138;-78
2020/12/02 02:04:25;;;;;;;30.85;16.05;;;;;;;-5.39;79.70;97290.17;1785119;79;23439;-77
2020/12/02 02:07:16;;;;;;;24.55;13.03;;;;;;;-5.45;79.55;97294.22;1759276;81;21498;-78
2020/12/02 02:09:48;;;;;;;28.40;15.28;;;;;;;-5.45;79.55;97298.09;1754087;81;21177;-78
2020/12/02 02:12:36;;;;;;;29.48;14.23;;;;;;;-5.40;79.52;97295.02;1729339;83;21143;-78
2020/12/02 02:15:25;;;;;;;24.55;9.88;;;;;;;-5.41;79.54;97293.41;1729508;83;21479;-79
2020/12/02 02:17:59;;;;;;;26.57;13.30;;;;;;;-5.40;79.55;97289.85;1729419;83;21510;-79
2020/12/02 02:20:35;;;;;;;32.88;16.40;;;;;;;-5.38;79.54;97286.13;1729595;82;21495;-79
2020/12/02 02:23:03;;;;;;;27.95;11.73;;;;;;;-5.32;79.64;97289.06;1729426;83;21531;-79
2020/12/02 02:25:30;;;;;;;15.05;9.55;;;;;;;-5.27;79.57;97286.78;1729607;83;21170;-79
2020/12/02 02:27:59;;;;;;;28.75;13.98;;;;;;;-5.29;79.45;97284.85;1729497;83;21155;-79
2020/12/02 02:30:26;;;;;;;23.95;12.35;;;;;;;-5.29;79.40;97280.98;1729478;81;21507;-79
2020/12/02 02:32:54;;;;;;;31.02;14.53;;;;;;;-5.29;79.38;97274.52;1729371;83;21463;-79
2020/12/02 02:35:22;;;;;;;27.02;12.40;;;;;;;-5.33;79.33;97274.53;1729439;83;21503;-79
2020/12/02 02:37:49;;;;;;;22.95;11.10;;;;;;;-5.34;79.35;97278.89;1729407;83;21146;-79
2020/12/02 02:40:17;;;;;;;20.52;9.53;;;;;;;-5.32;79.45;97277.43;1729678;82;21446;-79
2020/12/02 02:42:50;;;;;;;30.25;16.30;;;;;;;-5.32;79.43;97274.36;1729335;83;21163;-79
2020/12/02 02:45:28;;;;;;;29.10;15.18;;;;;;;-5.32;79.40;97279.53;1729418;83;21131;-79
2020/12/02 02:48:06;;;;;;;24.85;12.98;;;;;;;-5.33;79.35;97279.20;1729325;83;21170;-79
2020/12/02 02:50:30;;;;;;;28.90;14.43;;;;;;;-5.30;79.40;97278.07;1729340;82;21181;-79
2020/12/02 02:52:57;;;;;;;23.95;11.12;;;;;;;-5.31;79.36;97278.56;1729602;83;21150;-79
2020/12/02 02:55:27;;;;;;;28.65;14.28;;;;;;;-5.34;79.28;97276.79;1729415;83;21151;-79
2020/12/02 02:57:55;;;;;;;;;;;;;;;-5.34;79.29;97276.79;1731966;83;21510;-79
2020/12/02 03:00:27;;;;;;;21.00;10.58;;;;;;;-5.40;79.17;97271.77;1748921;81;20151;-79
2020/12/02 03:02:54;;;;;;;28.35;13.32;;;;;;;-5.45;79.18;97280.49;1759492;81;21143;-79
2020/12/02 03:05:21;;;;;;;30.90;15.78;;;;;;;-5.47;79.27;97281.14;1759688;81;21136;-79
2020/12/02 03:07:55;;;;;;;24.07;14.18;;;;;;;-5.49;79.31;97280.47;1759410;81;21317;-79
2020/12/02 03:10:27;;;;;;;30.57;15.95;;;;;;;-5.49;79.24;97277.89;1729663;81;21107;-79
2020/12/02 03:12:59;;;;;;;32.28;14.40;;;;;;;-5.51;79.15;97282.41;1740245;81;21127;-79
2020/12/02 03:15:26;;;;;;;24.85;14.50;;;;;;;-5.55;79.01;97281.13;1728941;83;21159;-79
2020/12/02 03:17:55;;;;;;;29.57;13.72;;;;;;;-5.57;79.05;97277.41;1728829;83;21107;-79
2020/12/02 03:20:39;;;;;;;16.48;8.93;;;;;;;-5.56;79.06;97283.39;1728836;82;21306;-79
2020/12/02 03:23:10;;;;;;;26.37;14.05;;;;;;;-5.56;79.26;97286.77;1728800;83;21142;-78
2020/12/02 03:25:39;;;;;;;29.92;13.93;;;;;;;-5.53;79.24;97282.58;1728883;83;21160;-79
2020/12/02 03:28:08;;;;;;;30.52;13.80;;;;;;;-5.54;79.25;97285.32;1728977;83;21142;-79
2020/12/02 03:30:35;;;;;;;28.15;14.58;;;;;;;-5.52;79.31;97284.19;1728923;82;21499;-79
2020/12/02 03:33:02;;;;;;;30.88;16.07;;;;;;;-5.54;79.22;97286.61;1728825;83;21261;-79
2020/12/02 03:35:30;;;;;;;25.43;13.95;;;;;;;-5.50;79.37;97282.73;1700168;83;21142;-79
2020/12/02 03:37:57;;;;;;;27.05;14.63;;;;;;;-5.49;79.26;97289.52;1728813;83;21135;-78
2020/12/02 03:40:24;;;;;;;30.00;14.68;;;;;;;-5.53;79.14;97298.07;1728779;82;21146;-78
2020/12/02 03:42:52;;;;;;;14.25;7.75;;;;;;;-5.55;79.24;97303.08;1728765;83;21172;-78
2020/12/02 03:45:19;;;;;;;28.20;14.20;;;;;;;-5.59;79.36;97299.20;1728798;83;21126;-79
2020/12/02 03:47:46;;;;;;;28.65;13.65;;;;;;;-5.53;79.50;97298.07;1729055;83;21478;-78
2020/12/02 03:50:14;;;;;;;22.25;12.20;;;;;;;-5.51;79.38;97301.78;1728893;82;21146;-78
2020/12/02 03:52:41;;;;;;;23.77;12.95;;;;;;;-5.50;79.31;97302.11;1728852;83;21159;-78
2020/12/02 03:55:11;;;;;;;22.75;12.25;;;;;;;-5.52;79.22;97302.27;1728852;83;21115;-79
2020/12/02 03:57:38;;;;;;;26.82;13.18;;;;;;;-5.49;79.20;97298.55;1728832;83;21138;-79
2020/12/02 04:00:10;;;;;;;24.80;12.00;;;;;;;-5.51;79.02;97294.84;1728712;82;21150;-79
2020/12/02 04:02:38;;;;;;;22.17;11.10;;;;;;;-5.49;78.99;97295.97;1728710;83;21578;-79
2020/12/02 04:05:07;;;;;;;21.37;11.68;;;;;;;-5.46;78.90;97297.77;1729083;83;21118;-79
2020/12/02 04:07:35;;;;;;;20.80;10.60;;;;;;;-5.46;78.76;97297.77;1728466;83;21155;-78
2020/12/02 04:10:02;;;;;;;21.97;12.33;;;;;;;-5.44;78.66;97302.29;1728723;82;21172;-78
2020/12/02 04:12:29;;;;;;;22.62;11.22;;;;;;;-5.49;78.47;97299.39;1728711;83;21537;-79
2020/12/02 04:14:56;;;;;;;26.70;14.45;;;;;;;-5.64;78.36;97298.38;1728870;83;21151;-79
2020/12/02 04:17:23;;;;;;;29.75;14.00;;;;;;;-5.76;78.46;97297.90;1728791;83;21115;-79
2020/12/02 04:19:49;;;;;;;25.70;12.60;;;;;;;-5.86;78.65;97293.84;1728697;82;21135;-79
2020/12/02 04:22:16;;;;;;;29.27;14.80;;;;;;;-5.84;78.92;97293.19;1728865;83;21511;-79
2020/12/02 04:24:43;;;;;;;30.00;12.73;;;;;;;-5.80;79.07;97297.06;1728960;83;21490;-79
2020/12/02 04:27:11;;;;;;;30.37;14.23;;;;;;;-5.76;78.96;97295.80;1728951;83;21162;-79
2020/12/02 04:29:38;;;;;;;23.20;12.10;;;;;;;-5.77;78.81;97289.83;1728707;82;21174;-79
2020/12/02 04:32:05;;;;;;;23.15;12.53;;;;;;;-5.75;78.73;97287.89;1729050;83;21162;-79
2020/12/02 04:34:33;;;;;;;26.27;12.25;;;;;;;-5.70;78.80;97286.11;1728768;83;21131;-79
2020/12/02 04:37:00;;;;;;;24.00;12.58;;;;;;;-5.66;78.86;97292.56;1728804;83;21158;-79
2020/12/02 04:39:27;;;;;;;23.50;12.98;;;;;;;-5.60;78.88;97297.59;1728773;82;21514;-78
2020/12/02 04:41:54;;;;;;;27.65;14.33;;;;;;;-5.56;78.88;97303.56;1728705;83;21277;-78
2020/12/02 04:44:22;;;;;;;24.92;13.45;;;;;;;-5.56;78.78;97305.34;1729003;83;21163;-78
2020/12/02 04:46:55;;;;;;;23.50;11.12;;;;;;;-5.56;78.75;97306.63;1728740;83;21285;-78
2020/12/02 04:49:32;;;;;;;27.40;14.03;;;;;;;-5.58;78.75;97306.80;1728981;82;21138;-79
2020/12/02 04:52:13;;;;;;;28.52;12.68;;;;;;;-5.63;78.80;97299.19;1729020;83;21142;-79
2020/12/02 04:54:42;;;;;;;23.92;11.30;;;;;;;-5.67;78.73;97303.38;1728973;83;21502;-79
2020/12/02 04:57:10;;;;;;;30.97;16.27;;;;;;;-5.68;78.79;97298.38;1729066;83;21155;-78
2020/12/02 04:59:42;;;;;;;24.37;14.18;;;;;;;-5.92;78.19;97303.52;1728658;82;21214;-78
2020/12/02 05:02:26;;;;;;;30.35;14.85;;;;;;;-6.03;78.33;97293.83;1728834;83;21131;-79
2020/12/02 05:05:06;;;;;;;23.15;13.28;;;;;;;-6.10;78.35;97295.41;1818292;79;22921;-77
2020/12/02 05:07:33;;;;;;;27.62;14.90;;;;;;;-6.31;77.83;97301.00;1791931;80;21154;-77
2020/12/02 05:10:11;;;;;;;27.90;13.13;;;;;;;-6.45;78.04;97295.61;1782499;80;21148;-77
2020/12/02 05:12:45;;;;;;;27.48;13.30;;;;;;;-6.43;78.36;97297.55;1760510;81;21258;-78
2020/12/02 05:15:25;;;;;;;22.80;12.53;;;;;;;-6.40;78.54;97292.88;1760591;81;21147;-78
2020/12/02 05:18:19;;;;;;;28.70;13.40;;;;;;;-6.50;78.24;97292.67;1760749;81;21480;-78
2020/12/02 05:21:21;;;;;;;26.00;12.93;;;;;;;-6.52;78.41;97294.59;1760225;80;21306;-78
2020/12/02 05:24:05;;;;;;;26.47;13.10;;;;;;;-6.50;78.40;97294.77;1760750;81;21155;-78
2020/12/02 05:26:40;;;;;;;31.55;14.38;;;;;;;-6.53;78.41;97295.56;1751763;81;21147;-79
2020/12/02 05:29:40;;;;;;;25.90;13.60;;;;;;;-6.57;78.56;97298.94;1760591;81;21614;-79
2020/12/02 05:32:28;;;;;;;29.83;14.47;;;;;;;-6.52;78.80;97295.89;1760646;81;21496;-79
2020/12/02 05:34:56;;;;;;;28.65;14.07;;;;;;;-6.52;78.82;97299.75;1760491;81;21650;-78
2020/12/02 05:37:40;;;;;;;28.38;13.53;;;;;;;-6.45;78.81;97306.73;1760601;81;21515;-79
2020/12/02 05:40:12;;;;;;;32.08;16.55;;;;;;;-6.43;78.79;97298.84;1760446;80;21285;-78
2020/12/02 05:42:47;;;;;;;38.90;19.90;;;;;;;-6.50;78.57;97296.53;1731226;81;21096;-78
2020/12/02 05:45:28;;;;;;;32.95;16.15;;;;;;;-6.65;78.95;97297.11;1759459;81;21108;-78
2020/12/02 05:47:56;;;;;;;29.87;13.27;;;;;;;-6.71;79.04;97296.93;1760580;81;21637;-79
2020/12/02 05:50:25;;;;;;;30.33;14.40;;;;;;;-6.71;79.22;97299.03;1760558;80;21174;-78
2020/12/02 05:53:14;;;;;;;33.30;14.45;;;;;;;-6.67;79.39;97292.59;1760548;81;21298;-79
2020/12/02 05:55:41;;;;;;;29.65;13.62;;;;;;;-6.60;79.30;97296.67;1755957;81;21277;-79
2020/12/02 05:58:22;;;;;;;32.48;12.45;;;;;;;-6.55;79.23;97301.36;1760452;81;21274;-79
2020/12/02 06:00:49;;;;;;;36.20;15.70;;;;;;;-6.55;78.82;97304.74;1760087;80;21135;-78
2020/12/02 06:03:19;;;;;;;35.33;14.55;;;;;;;-6.61;78.50;97312.63;1760519;81;21155;-78
2020/12/02 06:05:47;;;;;;;29.37;14.55;;;;;;;-6.56;78.45;97310.87;1760476;81;21104;-78
2020/12/02 06:08:37;;;;;;;35.03;14.55;;;;;;;-6.54;78.41;97308.13;1760383;81;21155;-78
2020/12/02 06:11:20;;;;;;;;;;;;;;;-6.50;78.43;97304.27;1763003;80;21277;-79
2020/12/02 06:13:58;;;;;;;22.77;10.20;;;;;;;-6.49;78.15;97317.02;1760245;81;20349;-79
2020/12/02 06:16:39;;;;;;;23.20;11.35;;;;;;;-6.56;77.87;97309.58;1759931;81;21165;-79
2020/12/02 06:19:31;;;;;;;20.30;10.82;;;;;;;-6.72;78.16;97311.59;1760105;81;21273;-79
2020/12/02 06:22:02;;;;;;;20.68;11.85;;;;;;;-6.81;78.42;97311.69;1759859;81;21131;-78
2020/12/02 06:24:37;;;;;;;23.30;12.00;;;;;;;-6.93;78.98;97317.56;1760347;81;21140;-78
2020/12/02 06:27:19;;;;;;;21.57;11.83;;;;;;;-6.91;79.27;97313.06;1759785;81;21131;-79
2020/12/02 06:29:54;;;;;;;21.17;11.38;;;;;;;-6.85;79.56;97313.77;1749336;80;21147;-78
2020/12/02 06:32:24;;;;;;;35.43;17.75;;;;;;;-6.79;79.41;97319.59;1759596;81;21143;-78
2020/12/02 06:35:10;;;;;;;;;;;;;;;-6.85;78.96;97322.78;1762588;81;21140;-78
2020/12/02 06:37:37;;;;;;;24.00;11.93;;;;;;;-6.87;78.72;97316.17;1759882;81;20117;-79
2020/12/02 06:40:05;;;;;;;26.80;12.78;;;;;;;-6.87;78.38;97316.98;1759801;80;21150;-79
2020/12/02 06:42:38;;;;;;;25.60;13.80;;;;;;;-6.86;78.19;97311.34;1759680;81;21151;-79
2020/12/02 06:45:26;;;;;;;30.45;13.13;;;;;;;-6.82;78.24;97315.23;1760134;81;21140;-79
2020/12/02 06:48:01;;;;;;;23.97;12.30;;;;;;;-6.77;78.27;97317.66;1759854;81;21156;-79
2020/12/02 06:50:34;;;;;;;27.50;13.85;;;;;;;-6.60;78.39;97314.23;1759902;80;21180;-79
2020/12/02 06:53:21;;;;;;;28.62;14.55;;;;;;;-6.30;78.50;97319.38;1759891;81;21109;-79
2020/12/02 06:55:57;;;;;;;29.95;15.80;;;;;;;-5.82;78.68;97313.20;1759872;81;21548;-79
2020/12/02 06:58:25;;;;;;;32.93;17.00;;;;;;;-5.23;78.50;97324.25;1759836;81;21104;-79
2020/12/02 07:00:57;;;;;;;32.17;18.12;;;;;;;-4.80;78.03;97321.31;1759759;80;21158;-79
2020/12/02 07:03:36;;;;;;;30.05;16.82;;;;;;;-4.45;77.45;97315.44;1759861;81;21147;-79
2020/12/02 07:06:29;;;;;;;33.88;17.37;;;;;;;-4.04;76.74;97311.41;1730616;81;21554;-79
2020/12/02 07:09:08;;;;;;;32.03;19.15;;;;;;;-3.77;75.95;97313.53;1759827;81;21131;-79
2020/12/02 07:11:37;;;;;;;32.90;18.30;;;;;;;-3.48;75.57;97308.17;1759678;80;21177;-78
2020/12/02 07:14:28;;;;;;;33.25;18.40;;;;;;;-3.04;75.16;97310.91;1759854;81;21163;-78
2020/12/02 07:17:02;;;;;;;35.78;20.52;;;;;;;-2.73;74.63;97312.09;1759791;81;21160;-78
2020/12/02 07:19:38;;;;;;;36.68;20.15;;;;;;;-2.42;74.22;97311.44;1759362;80;21127;-79
2020/12/02 07:22:24;;;;;;;37.08;20.65;;;;;;;-1.91;73.40;97308.91;1759844;81;21456;-79
2020/12/02 07:24:57;;;;;;;41.95;21.73;;;;;;;-1.91;73.40;97308.91;1759878;81;21120;-78
2020/12/02 07:27:25;;;;;;;56.50;27.45;;;;;;;-1.74;72.63;97317.78;1759941;81;21285;-78
2020/12/02 07:30:00;;;;;;;53.80;25.80;;;;;;;-1.62;72.40;97313.72;1759766;80;21167;-78
2020/12/02 07:32:28;;;;;;;55.48;27.00;;;;;;;-1.40;72.49;97315.86;1759799;81;21448;-79
2020/12/02 07:35:08;;;;;;;47.33;24.90;;;;;;;-1.14;72.17;97319.19;1759836;81;21139;-79
2020/12/02 07:37:36;;;;;;;32.85;18.23;;;;;;;-0.97;72.01;97317.46;1759708;81;21151;-79
2020/12/02 07:40:06;;;;;;;49.42;24.98;;;;;;;-0.99;71.38;97311.61;1759728;80;21147;-79
2020/12/02 07:42:38;;;;;;;44.18;23.77;;;;;;;-1.15;70.69;97317.58;1759826;81;21149;-79
2020/12/02 07:45:18;;;;;;;38.08;21.23;;;;;;;-1.00;70.84;97310.50;1759852;81;21143;-79
2020/12/02 07:48:09;;;;;;;40.08;20.70;;;;;;;-0.76;70.60;97310.59;1759843;81;21096;-79
2020/12/02 07:50:47;;;;;;;;;;;;;;;-0.66;70.23;97311.88;1762590;80;21181;-79
2020/12/02 07:53:35;;;;;;;46.40;24.50;;;;;;;-0.64;69.84;97311.69;1759897;81;20121;-79
2020/12/02 07:56:05;;;;;;;39.18;21.33;;;;;;;-0.45;69.98;97303.69;1759941;81;21487;-79
2020/12/02 07:58:40;;;;;;;41.18;21.42;;;;;;;-0.30;69.49;97300.47;1759796;81;21155;-79
2020/12/02 08:01:35;;;;;;;36.55;20.52;;;;;;;-0.39;69.38;97298.53;1759879;80;21502;-79
2020/12/02 08:04:25;;;;;;;40.20;22.87;;;;;;;-0.27;69.22;97298.81;1724234;81;21167;-79
2020/12/02 08:07:05;;;;;;;47.50;24.75;;;;;;;-0.27;69.22;97298.81;1765427;81;21186;-79
2020/12/02 08:09:51;;;;;;;48.70;26.10;;;;;;;0.03;69.48;97288.12;1765668;80;21167;-79
2020/12/02 08:12:30;;;;;;;49.58;25.50;;;;;;;-0.05;68.98;97285.97;1765536;81;21163;-79
2020/12/02 08:15:10;;;;;;;41.75;23.40;;;;;;;-0.44;68.39;97292.27;1765837;81;21123;-78
2020/12/02 08:17:45;;;;;;;40.33;22.42;;;;;;;-0.43;68.45;97291.28;1765503;81;21487;-79
2020/12/02 08:20:33;;;;;;;42.27;23.25;;;;;;;-0.68;68.04;97294.84;1764697;80;21135;-79
2020/12/02 08:23:13;;;;;;;66.17;34.05;;;;;;;-0.97;67.87;97295.34;1765384;81;21131;-79
2020/12/02 08:26:09;;;;;;;85.60;41.05;;;;;;;-1.41;67.30;97299.42;1750663;81;21143;-79
2020/12/02 08:28:40;;;;;;;64.65;34.65;;;;;;;-1.80;67.33;97292.84;1765378;81;21127;-78
2020/12/02 08:31:31;;;;;;;51.15;29.75;;;;;;;-2.18;67.28;97294.78;1765864;80;21297;-78
2020/12/02 08:34:23;;;;;;;61.92;35.17;;;;;;;-2.42;67.73;97299.75;1765472;81;21460;-78
2020/12/02 08:37:14;;;;;;;55.25;29.55;;;;;;;-2.54;68.07;97293.89;1763408;81;21143;-79
2020/12/02 08:39:46;;;;;;;63.63;35.17;;;;;;;-2.67;68.26;97298.89;1765421;80;21163;-79
2020/12/02 08:42:32;;;;;;;53.08;27.90;;;;;;;-2.67;68.80;97293.23;1765537;81;21135;-79
2020/12/02 08:45:09;;;;;;;45.70;26.30;;;;;;;-2.51;69.07;97286.57;1765438;81;21179;-79
2020/12/02 08:47:59;;;;;;;52.00;28.17;;;;;;;-2.46;68.87;97288.62;1785172;79;22949;-78
2020/12/02 08:50:31;;;;;;;47.62;24.50;;;;;;;-2.50;68.93;97282.19;1745101;81;21176;-79
2020/12/02 08:53:00;;;;;;;41.30;22.87;;;;;;;-2.53;68.91;97284.66;1729288;83;21131;-79
2020/12/02 08:55:28;;;;;;;53.50;28.87;;;;;;;-2.62;68.87;97280.52;1729432;83;21550;-79
2020/12/02 08:57:57;;;;;;;48.17;29.37;;;;;;;-2.73;68.81;97272.67;1729315;83;21164;-79
2020/12/02 09:00:25;;;;;;;46.68;28.25;;;;;;;-2.78;68.93;97279.39;1729281;82;21528;-80
2020/12/02 09:02:53;;;;;;;55.92;31.68;;;;;;;-2.79;68.83;97280.37;1729486;83;21149;-80
2020/12/02 09:05:20;;;;;;;49.40;27.73;;;;;;;-2.82;69.03;97272.92;1729391;83;21498;-80
2020/12/02 09:07:48;;;;;;;48.65;27.93;;;;;;;-2.84;69.07;97268.41;1729361;83;21154;-79
2020/12/02 09:10:15;;;;;;;49.67;29.27;;;;;;;-2.84;69.26;97263.22;1729295;82;21151;-79
2020/12/02 09:12:43;;;;;;;46.13;27.52;;;;;;;-2.81;69.21;97266.78;1729235;83;21139;-80
2020/12/02 09:15:10;;;;;;;48.25;28.23;;;;;;;-2.83;69.18;97261.73;1729439;83;21126;-80
2020/12/02 09:17:38;;;;;;;45.65;27.35;;;;;;;-2.82;69.10;97262.05;1729507;83;21158;-80
2020/12/02 09:20:06;;;;;;;55.38;31.17;;;;;;;-2.83;68.96;97257.05;1729352;82;21161;-80
2020/12/02 09:22:33;;;;;;;56.18;31.90;;;;;;;-2.86;69.09;97254.32;1729407;83;21108;-80
2020/12/02 09:25:02;;;;;;;54.95;31.50;;;;;;;-2.87;69.04;97257.90;1729315;83;21506;-80
2020/12/02 09:27:31;;;;;;;57.93;33.23;;;;;;;-2.98;68.79;97258.33;1729241;83;21523;-80
2020/12/02 09:29:58;;;;;;;58.28;33.92;;;;;;;-3.08;68.98;97251.31;1729248;82;21147;-80
2020/12/02 09:32:25;;;;;;;55.88;32.80;;;;;;;-3.07;69.43;97244.64;1729288;83;21175;-80
2020/12/02 09:34:53;;;;;;;58.55;32.28;;;;;;;-2.83;69.58;97238.88;1729494;83;21155;-80
2020/12/02 09:37:20;;;;;;;55.25;30.80;;;;;;;-2.82;69.24;97241.79;1729462;83;21140;-80
2020/12/02 09:39:47;;;;;;;66.53;35.35;;;;;;;-2.73;69.53;97242.03;1729503;82;21116;-80
2020/12/02 09:42:41;;;;;;;63.48;34.20;;;;;;;-2.60;69.58;97240.11;1729248;83;21135;-80
2020/12/02 09:45:32;;;;;;;54.90;32.30;;;;;;;-2.40;69.54;97239.36;1729405;83;21510;-80
2020/12/02 09:48:06;;;;;;;56.08;30.80;;;;;;;-2.12;70.12;97233.00;1729199;83;21152;-80
2020/12/02 09:50:33;;;;;;;69.80;35.33;;;;;;;-1.80;69.33;97222.67;1728069;82;21173;-80
2020/12/02 09:53:04;;;;;;;63.98;35.43;;;;;;;-1.95;68.44;97228.42;1729412;83;21135;-80
2020/12/02 09:55:31;;;;;;;58.38;33.85;;;;;;;-2.07;68.57;97222.09;1728618;83;21188;-79
2020/12/02 09:57:58;;;;;;;65.92;35.70;;;;;;;-2.03;68.75;97222.02;1728989;83;21115;-80
2020/12/02 10:00:25;;;;;;;62.73;33.90;;;;;;;-1.96;68.79;97220.81;1728725;82;21146;-80
2020/12/02 10:03:33;;;;;;;59.85;34.78;;;;;;;-1.90;68.79;97216.97;1728743;83;21103;-79
2020/12/02 10:06:35;;;;;;;57.38;32.03;;;;;;;-1.86;68.56;97220.80;1728824;83;21151;-80
2020/12/02 10:09:26;;;;;;;58.45;34.48;;;;;;;-1.93;68.16;97220.44;1728763;83;21119;-80
2020/12/02 10:12:21;;;;;;;55.05;32.90;;;;;;;-2.02;67.74;97218.44;1728935;83;21147;-80
2020/12/02 10:15:11;;;;;;;62.27;34.23;;;;;;;-2.13;67.95;97216.31;1719992;83;21538;-79
2020/12/02 10:17:50;;;;;;;68.33;36.70;;;;;;;-2.06;68.03;97213.30;1717231;83;21514;-80
2020/12/02 10:20:44;;;;;;;65.17;36.15;;;;;;;-2.03;68.38;97212.13;1728984;82;21159;-80
2020/12/02 10:23:47;;;;;;;67.22;37.67;;;;;;;-1.91;68.03;97213.26;1728783;83;21291;-80
2020/12/02 10:26:50;;;;;;;67.22;37.90;;;;;;;-1.95;67.65;97209.43;1728690;83;21179;-79
2020/12/02 10:29:39;;;;;;;68.10;38.70;;;;;;;-2.14;67.47;97210.80;1728303;83;21120;-80
2020/12/02 10:32:36;;;;;;;64.90;36.17;;;;;;;-2.20;67.85;97201.16;1728855;83;21645;-79
2020/12/02 10:35:05;;;;;;;67.85;38.23;;;;;;;-2.25;67.75;97204.31;1728697;83;21131;-79
2020/12/02 10:37:37;;;;;;;76.70;43.20;;;;;;;-2.32;68.06;97196.13;1729088;83;21143;-79
2020/12/02 10:40:09;;;;;;;70.42;38.67;;;;;;;-2.23;68.46;97195.84;1728672;82;21480;-79
2020/12/02 10:43:11;;;;;;;78.78;44.30;;;;;;;-2.05;68.60;97195.92;1728835;83;21471;-79
2020/12/02 10:45:39;;;;;;;71.85;40.08;;;;;;;-2.00;68.75;97194.38;1726085;83;21513;-79
2020/12/02 10:48:26;;;;;;;75.67;41.18;;;;;;;-1.77;68.34;97182.52;1728727;83;21159;-79
2020/12/02 10:50:53;;;;;;;81.15;45.30;;;;;;;-1.88;68.14;97185.60;1728399;82;21539;-79
2020/12/02 10:53:26;;;;;;;86.25;48.78;;;;;;;-2.18;67.96;97184.41;1728844;83;21115;-79
2020/12/02 10:55:54;;;;;;;89.32;45.58;;;;;;;-2.49;68.27;97178.16;1729023;83;21123;-79
2020/12/02 10:58:29;;;;;;;84.05;45.25;;;;;;;-2.68;68.91;97186.49;1728652;83;21288;-79
2020/12/02 11:01:00;;;;;;;80.75;43.65;;;;;;;-2.82;69.24;97178.22;1728907;82;21188;-79
2020/12/02 11:03:35;;;;;;;81.17;43.85;;;;;;;-2.91;69.59;97176.23;1727958;83;21199;-79
2020/12/02 11:06:24;;;;;;;82.33;48.48;;;;;;;-2.95;69.83;97174.98;1728667;83;21150;-79
2020/12/02 11:09:05;;;;;;;80.97;46.77;;;;;;;-3.06;70.06;97181.91;1725004;83;21332;-79
2020/12/02 11:12:02;;;;;;;82.30;46.35;;;;;;;-2.90;70.58;97168.77;1728529;82;21135;-79
2020/12/02 11:14:54;;;;;;;89.47;46.95;;;;;;;-2.72;70.32;97166.59;1728589;83;21146;-79
2020/12/02 11:17:38;;;;;;;87.37;45.35;;;;;;;-2.62;70.37;97172.81;1728861;83;21143;-80
2020/12/02 11:20:15;;;;;;;87.90;46.80;;;;;;;-2.49;70.27;97170.38;1718248;82;21151;-80
2020/12/02 11:23:05;;;;;;;83.00;42.53;;;;;;;-2.48;70.32;97165.50;1719718;83;21167;-79
2020/12/02 11:25:59;;;;;;;;;;;;;;;-2.30;70.56;97161.69;1731314;83;21280;-79
2020/12/02 11:28:26;;;;;;;79.20;41.25;;;;;;;-2.08;70.36;97160.73;1694892;83;20146;-80
2020/12/02 11:30:59;;;;;;;78.37;41.83;;;;;;;-1.93;69.88;97156.28;1728721;82;21287;-80
2020/12/02 11:33:47;;;;;;;70.92;40.17;;;;;;;-2.01;69.53;97155.09;1728830;83;21139;-80
2020/12/02 11:36:22;;;;;;;75.95;44.03;;;;;;;-2.07;69.52;97159.75;1728994;83;21100;-80
2020/12/02 11:39:14;;;;;;;75.83;44.80;;;;;;;-2.07;69.68;97157.14;1728703;83;21494;-80
2020/12/02 11:42:08;;;;;;;67.90;40.35;;;;;;;-1.98;69.84;97150.82;1726153;83;21201;-80
2020/12/02 11:44:52;;;;;;;72.50;39.83;;;;;;;-1.93;69.37;97151.09;1728500;83;21147;-80
2020/12/02 11:47:58;;;;;;;81.75;47.90;;;;;;;-1.96;69.37;97151.47;1730567;83;21147;-79
2020/12/02 11:50:37;;;;;;;76.50;41.20;;;;;;;-2.07;69.37;97148.05;1734130;81;21621;-80
2020/12/02 11:53:44;;;;;;;78.78;42.65;;;;;;;-1.91;69.64;97142.61;1731788;83;21296;-80
2020/12/02 11:56:17;;;;;;;84.25;44.08;;;;;;;-1.81;69.49;97150.91;1734148;82;21126;-80
2020/12/02 11:58:48;;;;;;;75.67;41.18;;;;;;;-1.86;69.37;97146.73;1734148;83;21126;-80
2020/12/02 12:01:51;;;;;;;80.38;44.48;;;;;;;-1.87;69.10;97139.14;1734130;81;21177;-80
2020/12/02 12:04:37;;;;;;;80.57;44.00;;;;;;;-1.89;68.95;97138.02;1734274;82;21260;-80
2020/12/02 12:07:40;;;;;;;84.28;46.23;;;;;;;-1.98;69.04;97136.53;1734225;82;21621;-80